createdAt,value
2016-08-07T00:03:24.140Z,967.24
2016-08-07T00:05:24.545Z,967.21
2016-08-07T00:06:32.711Z,967.16
2016-08-07T00:07:19.739Z,967.20
2016-08-07T00:12:29.323Z,967.22
2016-08-07T00:13:22.026Z,967.21
2016-08-07T00:14:27.737Z,967.26
2016-08-07T00:15:31.063Z,967.25
2016-08-07T00:16:30.489Z,967.26
2016-08-07T00:17:23.388Z,967.22
2016-08-07T00:18:23.513Z,967.27
2016-08-07T00:19:27.679Z,967.24
2016-08-07T00:22:27.969Z,967.23
2016-08-07T00:23:19.827Z,967.25
2016-08-07T00:24:26.058Z,967.25
2016-08-07T00:25:22.643Z,967.26
2016-08-07T00:26:34.469Z,967.22
2016-08-07T00:27:34.715Z,967.23
2016-08-07T00:28:24.573Z,967.24
2016-08-07T00:30:33.887Z,967.25
2016-08-07T00:32:19.807Z,967.23
2016-08-07T00:33:25.048Z,967.22
2016-08-07T00:35:23.102Z,967.24
2016-08-07T00:38:22.847Z,967.25
2016-08-07T00:39:16.862Z,967.26
2016-08-07T00:40:35.572Z,967.24
2016-08-07T00:45:32.268Z,967.21
2016-08-07T00:46:24.123Z,967.23
2016-08-07T00:47:22.399Z,967.21
2016-08-07T00:49:42.820Z,967.19
2016-08-07T00:52:30.092Z,967.19
2016-08-07T00:54:19.886Z,967.19
2016-08-07T00:57:26.987Z,967.21
2016-08-07T00:58:22.381Z,967.21
2016-08-07T00:59:20.363Z,967.18
2016-08-07T01:03:59.712Z,967.17
2016-08-07T01:04:25.388Z,967.19
2016-08-07T01:05:33.823Z,967.18
2016-08-07T01:07:26.973Z,967.14
2016-08-07T01:08:24.015Z,967.13
2016-08-07T01:09:22.873Z,967.15
2016-08-07T01:10:19.306Z,967.10
2016-08-07T01:12:32.484Z,967.08
2016-08-07T01:13:23.109Z,967.12
2016-08-07T01:15:26.006Z,967.12
2016-08-07T01:16:29.010Z,967.08
2016-08-07T01:17:27.861Z,967.08
2016-08-07T01:18:28.277Z,967.09
2016-08-07T01:19:22.887Z,967.11
2016-08-07T01:20:45.730Z,967.10
2016-08-07T01:21:22.456Z,967.11
2016-08-07T01:22:29.972Z,967.07
2016-08-07T01:24:32.753Z,966.99
2016-08-07T01:25:26.144Z,967.02
2016-08-07T01:27:27.538Z,967.03
2016-08-07T01:29:22.828Z,967.01
2016-08-07T01:32:28.412Z,967.04
2016-08-07T01:33:28.684Z,967.03
2016-08-07T01:34:19.928Z,967.02
2016-08-07T01:35:34.484Z,967.00
2016-08-07T01:36:34.432Z,967.02
2016-08-07T01:37:22.299Z,967.03
2016-08-07T01:38:24.352Z,967.02
2016-08-07T01:39:22.533Z,967.01
2016-08-07T01:40:24.254Z,966.99
2016-08-07T01:42:28.009Z,966.99
2016-08-07T01:44:36.706Z,967.00
2016-08-07T01:45:39.000Z,966.98
2016-08-07T01:46:34.433Z,966.95
2016-08-07T01:48:24.278Z,966.98
2016-08-07T01:49:22.336Z,966.95
2016-08-07T01:50:25.990Z,966.97
2016-08-07T01:54:22.219Z,966.95
2016-08-07T01:56:33.860Z,966.93
2016-08-07T01:57:26.431Z,966.90
2016-08-07T01:58:27.214Z,966.91
2016-08-07T01:59:23.344Z,966.89
2016-08-07T02:00:17.399Z,966.91
2016-08-07T02:02:26.797Z,966.89
2016-08-07T02:03:27.704Z,966.87
2016-08-07T02:10:22.965Z,966.83
2016-08-07T02:25:32.709Z,966.82
2016-08-07T02:32:27.549Z,966.81
2016-08-07T02:37:20.603Z,966.83
2016-08-07T02:38:26.582Z,966.86
2016-08-07T02:39:32.749Z,966.83
2016-08-07T02:42:23.694Z,966.84
2016-08-07T02:43:39.072Z,966.87
2016-08-07T02:44:27.017Z,966.84
2016-08-07T02:45:28.283Z,966.88
2016-08-07T02:46:21.614Z,966.89
2016-08-07T02:47:27.705Z,966.88
2016-08-07T02:49:27.745Z,966.88
2016-08-07T02:50:27.342Z,966.86
2016-08-07T02:52:26.113Z,966.89
2016-08-07T02:53:22.978Z,966.87
2016-08-07T02:55:23.892Z,966.89
2016-08-07T02:56:24.029Z,966.89
2016-08-07T02:57:24.345Z,966.89
2016-08-07T02:58:32.966Z,966.93
2016-08-07T03:00:27.829Z,966.93
2016-08-07T03:02:20.711Z,966.92
2016-08-07T03:04:27.802Z,966.90
2016-08-07T03:05:26.785Z,966.97
2016-08-07T03:06:39.750Z,966.93
2016-08-07T03:08:24.160Z,966.91
2016-08-07T03:09:29.031Z,966.93
2016-08-07T03:10:20.880Z,966.92
2016-08-07T03:12:22.660Z,966.88
2016-08-07T03:13:27.985Z,966.90
2016-08-07T03:14:17.606Z,966.93
2016-08-07T03:15:22.499Z,966.95
2016-08-07T03:16:22.419Z,966.95
2016-08-07T03:17:29.088Z,966.92
2016-08-07T03:18:33.444Z,966.91
2016-08-07T03:19:22.703Z,966.88
2016-08-07T03:20:26.926Z,966.85
2016-08-07T03:22:18.016Z,966.93
2016-08-07T03:23:22.147Z,966.92
2016-08-07T03:24:21.762Z,966.90
2016-08-07T03:25:28.270Z,966.89
2016-08-07T03:26:12.438Z,966.93
2016-08-07T03:27:23.716Z,966.91
2016-08-07T03:28:20.859Z,966.94
2016-08-07T03:29:24.413Z,966.98
2016-08-07T03:30:19.738Z,967.00
2016-08-07T03:32:38.472Z,967.00
2016-08-07T03:33:25.352Z,967.02
2016-08-07T03:34:38.443Z,967.01
2016-08-07T03:36:22.807Z,967.01
2016-08-07T03:37:31.928Z,966.97
2016-08-07T03:38:26.694Z,966.98
2016-08-07T03:39:32.514Z,967.00
2016-08-07T03:40:22.225Z,967.00
2016-08-07T03:42:27.979Z,967.02
2016-08-07T03:43:33.347Z,967.05
2016-08-07T03:44:18.783Z,967.09
2016-08-07T03:45:37.871Z,967.07
2016-08-07T03:47:33.894Z,967.08
2016-08-07T03:48:23.002Z,967.10
2016-08-07T03:49:22.497Z,967.10
2016-08-07T03:50:23.174Z,967.10
2016-08-07T03:52:29.133Z,967.11
2016-08-07T03:53:28.367Z,967.11
2016-08-07T03:54:33.405Z,967.13
2016-08-07T03:56:28.727Z,967.17
2016-08-07T03:57:25.277Z,967.14
2016-08-07T03:58:28.399Z,967.15
2016-08-07T03:59:28.673Z,967.18
2016-08-07T04:00:21.107Z,967.19
2016-08-07T04:02:27.860Z,967.20
2016-08-07T04:03:22.978Z,967.24
2016-08-07T04:04:23.029Z,967.23
2016-08-07T04:05:25.449Z,967.25
2016-08-07T04:06:26.565Z,967.24
2016-08-07T04:07:27.682Z,967.26
2016-08-07T04:08:26.581Z,967.20
2016-08-07T04:09:28.515Z,967.23
2016-08-07T04:10:28.505Z,967.26
2016-08-07T04:12:24.384Z,967.25
2016-08-07T04:13:28.474Z,967.25
2016-08-07T04:14:22.942Z,967.23
2016-08-07T04:15:28.861Z,967.27
2016-08-07T04:16:23.516Z,967.26
2016-08-07T04:17:25.258Z,967.30
2016-08-07T04:18:20.884Z,967.28
2016-08-07T04:19:23.117Z,967.29
2016-08-07T04:20:33.725Z,967.29
2016-08-07T04:22:25.432Z,967.26
2016-08-07T04:23:24.131Z,967.25
2016-08-07T04:25:39.218Z,967.25
2016-08-07T04:26:33.595Z,967.25
2016-08-07T04:27:22.922Z,967.29
2016-08-07T04:28:18.481Z,967.31
2016-08-07T04:29:28.021Z,967.30
2016-08-07T04:30:27.540Z,967.34
2016-08-07T04:31:23.291Z,967.32
2016-08-07T04:32:28.284Z,967.31
2016-08-07T04:33:33.007Z,967.30
2016-08-07T04:34:33.883Z,967.31
2016-08-07T04:35:33.036Z,967.37
2016-08-07T04:36:22.692Z,967.39
2016-08-07T04:37:30.285Z,967.37
2016-08-07T04:38:26.837Z,967.37
2016-08-07T04:39:28.417Z,967.40
2016-08-07T04:42:21.746Z,967.42
2016-08-07T04:43:24.851Z,967.45
2016-08-07T04:46:32.140Z,967.47
2016-08-07T04:47:18.984Z,967.48
2016-08-07T04:48:29.488Z,967.48
2016-08-07T04:49:34.423Z,967.46
2016-08-07T04:52:31.729Z,967.50
2016-08-07T04:53:25.757Z,967.49
2016-08-07T04:54:32.627Z,967.48
2016-08-07T04:55:22.986Z,967.51
2016-08-07T04:57:25.225Z,967.52
2016-08-07T04:58:26.331Z,967.55
2016-08-07T04:59:23.065Z,967.52
2016-08-07T05:00:21.793Z,967.59
2016-08-07T05:02:18.270Z,967.57
2016-08-07T05:03:32.546Z,967.60
2016-08-07T05:05:27.553Z,967.57
2016-08-07T05:06:33.546Z,967.61
2016-08-07T05:07:26.511Z,967.59
2016-08-07T05:08:27.494Z,967.60
2016-08-07T05:09:38.912Z,967.62
2016-08-07T05:10:21.597Z,967.61
2016-08-07T05:11:26.769Z,967.68
2016-08-07T05:12:33.303Z,967.68
2016-08-07T05:13:33.418Z,967.68
2016-08-07T05:14:31.462Z,967.70
2016-08-07T05:15:27.793Z,967.70
2016-08-07T05:16:32.274Z,967.68
2016-08-07T05:17:36.550Z,967.70
2016-08-07T05:18:24.868Z,967.70
2016-08-07T05:19:23.976Z,967.72
2016-08-07T05:20:32.450Z,967.72
2016-08-07T05:22:24.053Z,967.74
2016-08-07T05:23:32.000Z,967.76
2016-08-07T05:24:23.823Z,967.73
2016-08-07T05:25:22.475Z,967.76
2016-08-07T05:26:33.537Z,967.71
2016-08-07T05:27:22.553Z,967.71
2016-08-07T05:28:30.122Z,967.74
2016-08-07T05:30:28.219Z,967.64
2016-08-07T05:32:28.685Z,967.69
2016-08-07T05:33:38.406Z,967.66
2016-08-07T05:34:25.166Z,967.66
2016-08-07T05:35:27.411Z,967.70
2016-08-07T05:36:33.632Z,967.66
2016-08-07T05:37:32.087Z,967.70
2016-08-07T05:38:26.931Z,967.70
2016-08-07T05:39:32.463Z,967.66
2016-08-07T05:40:24.246Z,967.69
2016-08-07T05:42:29.943Z,967.67
2016-08-07T05:43:29.040Z,967.64
2016-08-07T05:44:23.013Z,967.67
2016-08-07T05:45:30.662Z,967.67
2016-08-07T05:47:32.900Z,967.70
2016-08-07T05:48:24.650Z,967.69
2016-08-07T05:49:27.240Z,967.69
2016-08-07T05:50:23.370Z,967.74
2016-08-07T05:52:28.492Z,967.72
2016-08-07T05:53:23.522Z,967.73
2016-08-07T05:54:33.762Z,967.71
2016-08-07T05:55:23.592Z,967.69
2016-08-07T05:56:28.244Z,967.66
2016-08-07T05:57:27.501Z,967.67
2016-08-07T05:59:27.562Z,967.75
2016-08-07T06:00:23.630Z,967.69
2016-08-07T06:03:22.107Z,967.76
2016-08-07T06:05:24.545Z,967.74
2016-08-07T06:06:22.889Z,967.76
2016-08-07T06:07:29.569Z,967.74
2016-08-07T06:08:27.173Z,967.75
2016-08-07T06:09:21.527Z,967.75
2016-08-07T06:10:25.813Z,967.71
2016-08-07T06:13:26.315Z,967.75
2016-08-07T06:14:33.668Z,967.75
2016-08-07T06:15:24.034Z,967.81
2016-08-07T06:16:28.683Z,967.79
2016-08-07T06:18:25.241Z,967.80
2016-08-07T06:19:21.937Z,967.82
2016-08-07T06:21:19.132Z,967.80
2016-08-07T06:25:25.778Z,967.83
2016-08-07T06:26:20.747Z,967.85
2016-08-07T06:27:27.503Z,967.86
2016-08-07T06:29:28.072Z,967.83
2016-08-07T06:30:24.952Z,967.82
2016-08-07T06:31:17.880Z,967.83
2016-08-07T06:32:33.465Z,967.84
2016-08-07T06:33:37.557Z,967.88
2016-08-07T06:34:23.055Z,967.89
2016-08-07T06:38:26.419Z,967.88
2016-08-07T06:39:23.651Z,967.85
2016-08-07T06:40:19.301Z,967.86
2016-08-07T06:42:22.871Z,967.84
2016-08-07T06:43:29.936Z,967.84
2016-08-07T06:44:19.390Z,967.93
2016-08-07T06:46:24.894Z,967.86
2016-08-07T06:47:26.977Z,967.90
2016-08-07T06:48:22.240Z,967.91
2016-08-07T06:49:33.724Z,967.84
2016-08-07T06:50:25.113Z,967.91
2016-08-07T06:51:20.186Z,967.89
2016-08-07T06:52:18.288Z,967.86
2016-08-07T06:53:18.931Z,967.86
2016-08-07T06:54:26.785Z,967.85
2016-08-07T06:55:31.392Z,967.86
2016-08-07T06:57:30.648Z,967.85
2016-08-07T06:59:18.286Z,967.86
2016-08-07T07:00:26.359Z,967.81
2016-08-07T07:07:20.274Z,967.79
2016-08-07T07:08:44.458Z,967.82
2016-08-07T07:09:34.464Z,967.85
2016-08-07T07:10:31.388Z,967.84
2016-08-07T07:11:19.006Z,967.79
2016-08-07T07:13:28.081Z,967.88
2016-08-07T07:16:32.997Z,967.87
2016-08-07T07:17:23.472Z,967.85
2016-08-07T07:18:22.460Z,967.91
2016-08-07T07:19:32.860Z,967.88
2016-08-07T07:20:42.897Z,967.87
2016-08-07T07:21:35.138Z,967.87
2016-08-07T07:22:25.707Z,967.85
2016-08-07T07:23:27.218Z,967.87
2016-08-07T07:24:25.389Z,967.84
2016-08-07T07:25:24.749Z,967.87
2016-08-07T07:27:18.680Z,967.84
2016-08-07T07:28:18.571Z,967.82
2016-08-07T07:29:24.624Z,967.81
2016-08-07T07:30:21.901Z,967.81
2016-08-07T07:31:12.284Z,967.85
2016-08-07T07:32:27.864Z,967.84
2016-08-07T07:33:33.396Z,967.87
2016-08-07T07:34:17.389Z,967.84
2016-08-07T07:35:17.861Z,967.85
2016-08-07T07:36:17.987Z,967.84
2016-08-07T07:38:28.256Z,967.86
2016-08-07T07:39:28.889Z,967.83
2016-08-07T07:40:25.364Z,967.84
2016-08-07T07:41:23.742Z,967.82
2016-08-07T07:42:27.399Z,967.80
2016-08-07T07:43:32.542Z,967.79
2016-08-07T07:45:17.911Z,967.81
2016-08-07T07:46:33.219Z,967.81
2016-08-07T07:47:26.532Z,967.83
2016-08-07T08:02:18.826Z,967.83
2016-08-07T08:02:25.690Z,967.81
2016-08-07T08:03:28.498Z,967.81
2016-08-07T08:04:24.198Z,967.83
2016-08-07T08:06:24.604Z,967.83
2016-08-07T08:07:23.890Z,967.78
2016-08-07T08:08:28.153Z,967.83
2016-08-07T08:09:27.960Z,967.84
2016-08-07T08:10:33.817Z,967.85
2016-08-07T08:11:30.472Z,967.86
2016-08-07T08:14:00.064Z,967.85
2016-08-07T08:14:21.512Z,967.83
2016-08-07T08:15:23.416Z,967.86
2016-08-07T08:16:19.172Z,967.87
2016-08-07T08:18:27.019Z,967.84
2016-08-07T08:19:43.011Z,967.84
2016-08-07T08:20:20.654Z,967.86
2016-08-07T08:22:18.014Z,967.81
2016-08-07T08:23:13.582Z,967.80
2016-08-07T08:24:23.371Z,967.79
2016-08-07T08:25:23.676Z,967.76
2016-08-07T08:26:24.770Z,967.75
2016-08-07T08:27:25.987Z,967.76
2016-08-07T08:28:24.325Z,967.77
2016-08-07T08:29:29.248Z,967.76
2016-08-07T08:31:20.139Z,967.77
2016-08-07T08:33:37.790Z,967.78
2016-08-07T08:39:24.538Z,967.79
2016-08-07T08:40:23.120Z,967.72
2016-08-07T08:41:22.822Z,967.73
2016-08-07T08:42:18.594Z,967.75
2016-08-07T08:43:26.169Z,967.70
2016-08-07T08:44:29.090Z,967.71
2016-08-07T08:45:28.091Z,967.69
2016-08-07T08:47:24.004Z,967.66
2016-08-07T08:48:32.226Z,967.65
2016-08-07T08:49:33.356Z,967.63
2016-08-07T08:55:28.403Z,967.60
2016-08-07T08:56:34.009Z,967.60
2016-08-07T09:05:21.117Z,967.55
2016-08-07T09:07:35.468Z,967.56
2016-08-07T09:08:18.215Z,967.57
2016-08-07T09:10:26.592Z,967.51
2016-08-07T09:15:21.415Z,967.51
2016-08-07T09:16:24.860Z,967.49
2016-08-07T09:18:25.017Z,967.48
2016-08-07T09:19:26.146Z,967.49
2016-08-07T09:21:37.118Z,967.47
2016-08-07T09:22:32.401Z,967.50
2016-08-07T09:23:29.185Z,967.54
2016-08-07T09:24:28.551Z,967.46
2016-08-07T09:25:18.674Z,967.43
2016-08-07T09:28:00.894Z,967.47
2016-08-07T09:36:38.296Z,967.41
2016-08-07T09:43:18.799Z,967.37
2016-08-07T09:45:32.008Z,967.34
2016-08-07T09:49:29.314Z,967.35
2016-08-07T09:54:18.250Z,967.35
2016-08-07T09:55:23.692Z,967.35
2016-08-07T09:59:27.423Z,967.36
2016-08-07T10:08:30.061Z,967.39
2016-08-07T10:09:23.045Z,967.29
2016-08-07T10:10:38.947Z,967.31
2016-08-07T10:11:18.990Z,967.27
2016-08-07T10:13:19.120Z,967.26
2016-08-07T10:14:17.998Z,967.28
2016-08-07T10:15:19.108Z,967.22
2016-08-07T10:16:23.047Z,967.21
2016-08-07T10:17:23.918Z,967.20
2016-08-07T10:18:43.724Z,967.19
2016-08-07T10:19:28.329Z,967.21
2016-08-07T10:20:27.929Z,967.19
2016-08-07T10:21:26.975Z,967.20
2016-08-07T10:22:34.070Z,967.15
2016-08-07T10:24:23.744Z,967.17
2016-08-07T10:25:27.217Z,967.20
2016-08-07T10:26:31.268Z,967.22
2016-08-07T10:27:18.517Z,967.24
2016-08-07T10:28:23.212Z,967.22
2016-08-07T10:29:23.025Z,967.23
2016-08-07T10:30:23.430Z,967.19
2016-08-07T10:31:31.511Z,967.19
2016-08-07T10:32:23.675Z,967.17
2016-08-07T10:33:27.867Z,967.18
2016-08-07T10:34:27.940Z,967.19
2016-08-07T10:35:17.698Z,967.20
2016-08-07T10:36:31.030Z,967.14
2016-08-07T10:37:18.025Z,967.11
2016-08-07T10:40:19.974Z,967.08
2016-08-07T10:41:24.622Z,967.09
2016-08-07T10:42:18.059Z,967.08
2016-08-07T10:43:23.261Z,967.08
2016-08-07T10:44:23.992Z,967.09
2016-08-07T10:45:22.992Z,967.09
2016-08-07T10:46:25.090Z,967.04
2016-08-07T10:48:29.203Z,967.08
2016-08-07T10:49:24.180Z,967.05
2016-08-07T10:50:29.895Z,967.05
2016-08-07T10:51:18.462Z,967.04
2016-08-07T10:52:17.325Z,967.08
2016-08-07T10:53:18.058Z,967.05
2016-08-07T10:55:28.607Z,967.00
2016-08-07T10:56:34.570Z,967.02
2016-08-07T10:57:24.521Z,967.00
2016-08-07T10:58:29.528Z,967.01
2016-08-07T10:59:18.269Z,967.02
2016-08-07T11:00:17.998Z,966.99
2016-08-07T11:01:23.710Z,966.96
2016-08-07T11:02:17.541Z,966.98
2016-08-07T11:03:24.822Z,966.96
2016-08-07T11:04:24.375Z,966.99
2016-08-07T11:05:22.418Z,966.98
2016-08-07T11:06:18.396Z,967.01
2016-08-07T11:07:12.438Z,966.94
2016-08-07T11:08:28.908Z,966.98
2016-08-07T11:09:18.276Z,966.92
2016-08-07T11:10:22.806Z,966.94
2016-08-07T11:11:33.472Z,966.94
2016-08-07T11:12:22.784Z,966.89
2016-08-07T11:13:22.391Z,966.89
2016-08-07T11:14:33.306Z,966.86
2016-08-07T11:15:37.389Z,966.89
2016-08-07T11:16:33.315Z,966.85
2016-08-07T11:17:24.483Z,966.83
2016-08-07T11:18:28.817Z,966.88
2016-08-07T11:19:18.481Z,966.86
2016-08-07T11:20:28.483Z,966.84
2016-08-07T11:21:23.474Z,966.88
2016-08-07T11:22:35.053Z,966.89
2016-08-07T11:23:28.199Z,966.89
2016-08-07T11:24:17.909Z,966.85
2016-08-07T11:25:33.275Z,966.86
2016-08-07T11:26:27.057Z,966.85
2016-08-07T11:27:28.239Z,966.85
2016-08-07T11:28:23.004Z,966.85
2016-08-07T11:29:22.875Z,966.84
2016-08-07T11:30:33.243Z,966.82
2016-08-07T11:31:28.189Z,966.81
2016-08-07T11:32:29.000Z,966.79
2016-08-07T11:33:23.044Z,966.81
2016-08-07T11:34:23.409Z,966.78
2016-08-07T11:35:23.440Z,966.81
2016-08-07T11:36:22.719Z,966.76
2016-08-07T11:37:33.944Z,966.74
2016-08-07T11:39:34.419Z,966.77
2016-08-07T11:40:23.269Z,966.69
2016-08-07T11:41:18.047Z,966.67
2016-08-07T11:45:30.537Z,966.68
2016-08-07T11:47:47.959Z,966.71
2016-08-07T11:48:18.709Z,966.69
2016-08-07T11:49:20.033Z,966.63
2016-08-07T11:50:18.322Z,966.63
2016-08-07T11:51:29.005Z,966.59
2016-08-07T11:55:24.306Z,966.47
2016-08-07T11:58:28.445Z,966.46
2016-08-07T12:00:32.570Z,966.42
2016-08-07T12:01:22.988Z,966.39
2016-08-07T12:02:28.895Z,966.39
2016-08-07T12:03:28.918Z,966.42
2016-08-07T12:06:29.025Z,966.33
2016-08-07T12:07:23.418Z,966.30
2016-08-07T12:09:32.843Z,966.33
2016-08-07T12:10:23.275Z,966.34
2016-08-07T12:11:33.507Z,966.27
2016-08-07T12:12:23.384Z,966.29
2016-08-07T12:13:23.553Z,966.24
2016-08-07T12:14:22.908Z,966.27
2016-08-07T12:15:28.127Z,966.26
2016-08-07T12:16:23.000Z,966.27
2016-08-07T12:17:28.384Z,966.25
2016-08-07T12:18:23.991Z,966.23
2016-08-07T12:19:33.924Z,966.26
2016-08-07T12:20:39.441Z,966.22
2016-08-07T12:21:23.465Z,966.24
2016-08-07T12:22:34.135Z,966.21
2016-08-07T12:23:25.092Z,966.24
2016-08-07T12:24:31.977Z,966.20
2016-08-07T12:25:35.302Z,966.21
2016-08-07T12:26:27.946Z,966.16
2016-08-07T12:27:22.679Z,966.18
2016-08-07T12:28:22.548Z,966.16
2016-08-07T12:30:29.393Z,966.13
2016-08-07T12:31:23.584Z,966.12
2016-08-07T12:34:23.593Z,966.10
2016-08-07T12:35:24.955Z,966.10
2016-08-07T12:36:34.074Z,966.02
2016-08-07T12:37:23.143Z,966.02
2016-08-07T12:38:22.856Z,966.01
2016-08-07T12:39:29.395Z,966.04
2016-08-07T12:40:23.170Z,965.99
2016-08-07T12:41:33.962Z,966.03
2016-08-07T12:42:34.635Z,966.00
2016-08-07T12:43:23.079Z,965.99
2016-08-07T12:44:15.240Z,966.01
2016-08-07T12:45:14.792Z,966.01
2016-08-07T12:46:32.542Z,966.02
2016-08-07T12:47:34.199Z,966.06
2016-08-07T12:48:17.432Z,965.98
2016-08-07T12:49:33.943Z,966.03
2016-08-07T12:50:28.466Z,965.98
2016-08-07T12:51:23.155Z,966.00
2016-08-07T12:52:18.495Z,965.95
2016-08-07T12:53:19.146Z,965.93
2016-08-07T12:54:23.269Z,965.95
2016-08-07T12:55:22.233Z,965.98
2016-08-07T12:56:28.986Z,965.96
2016-08-07T12:57:23.390Z,965.96
2016-08-07T12:58:28.207Z,965.97
2016-08-07T12:59:28.137Z,965.96
2016-08-07T13:00:34.289Z,965.96
2016-08-07T13:01:17.000Z,965.95
2016-08-07T13:03:22.839Z,965.86
2016-08-07T13:04:18.474Z,965.89
2016-08-07T13:05:29.074Z,965.80
2016-08-07T13:06:28.048Z,965.82
2016-08-07T13:07:25.220Z,965.82
2016-08-07T13:08:18.031Z,965.84
2016-08-07T13:09:23.747Z,965.86
2016-08-07T13:11:30.130Z,965.79
2016-08-07T13:12:19.058Z,965.81
2016-08-07T13:13:36.473Z,965.86
2016-08-07T13:14:34.955Z,965.86
2016-08-07T13:15:19.693Z,965.89
2016-08-07T13:17:28.890Z,965.82
2016-08-07T13:19:23.327Z,965.86
2016-08-07T13:20:28.722Z,965.86
2016-08-07T13:23:18.425Z,965.84
2016-08-07T13:24:18.270Z,965.83
2016-08-07T13:26:18.121Z,965.79
2016-08-07T13:27:22.804Z,965.83
2016-08-07T13:29:24.689Z,965.81
2016-08-07T13:30:45.919Z,965.80
2016-08-07T13:31:24.168Z,965.81
2016-08-07T13:32:31.946Z,965.79
2016-08-07T13:33:24.663Z,965.80
2016-08-07T13:34:18.004Z,965.76
2016-08-07T13:36:31.843Z,965.76
2016-08-07T13:37:25.137Z,965.79
2016-08-07T13:38:34.859Z,965.78
2016-08-07T13:41:18.525Z,965.78
2016-08-07T13:42:19.245Z,965.79
2016-08-07T13:43:25.918Z,965.76
2016-08-07T13:44:30.186Z,965.65
2016-08-07T13:47:24.088Z,965.66
2016-08-07T13:49:28.998Z,965.65
2016-08-07T13:50:18.655Z,965.72
2016-08-07T13:51:38.582Z,965.65
2016-08-07T13:52:18.975Z,965.65
2016-08-07T13:53:22.261Z,965.66
2016-08-07T13:55:23.975Z,965.67
2016-08-07T13:57:34.294Z,965.60
2016-08-07T13:58:29.906Z,965.65
2016-08-07T13:59:46.670Z,965.59
2016-08-07T14:00:43.019Z,965.59
2016-08-07T14:01:24.064Z,965.57
2016-08-07T14:02:23.913Z,965.59
2016-08-07T14:03:12.822Z,965.56
2016-08-07T14:04:24.366Z,965.57
2016-08-07T14:05:34.225Z,965.57
2016-08-07T14:06:29.119Z,965.56
2016-08-07T14:07:38.387Z,965.55
2016-08-07T14:08:20.288Z,965.56
2016-08-07T14:09:40.294Z,965.49
2016-08-07T14:11:23.547Z,965.45
2016-08-07T14:12:38.713Z,965.46
2016-08-07T14:13:37.361Z,965.45
2016-08-07T14:14:28.550Z,965.46
2016-08-07T14:15:18.081Z,965.50
2016-08-07T14:16:29.010Z,965.46
2016-08-07T14:17:24.038Z,965.41
2016-08-07T14:18:30.011Z,965.42
2016-08-07T14:19:32.066Z,965.41
2016-08-07T14:20:27.067Z,965.37
2016-08-07T14:21:24.621Z,965.37
2016-08-07T14:22:27.722Z,965.37
2016-08-07T14:23:54.680Z,965.34
2016-08-07T14:25:23.382Z,965.36
2016-08-07T14:26:23.198Z,965.36
2016-08-07T14:27:23.837Z,965.36
2016-08-07T14:28:17.558Z,965.34
2016-08-07T14:29:18.021Z,965.35
2016-08-07T14:30:36.164Z,965.33
2016-08-07T14:31:24.655Z,965.26
2016-08-07T14:34:29.466Z,965.25
2016-08-07T14:35:30.600Z,965.28
2016-08-07T14:36:20.336Z,965.27
2016-08-07T14:37:30.345Z,965.24
2016-08-07T14:38:28.995Z,965.27
2016-08-07T14:40:22.714Z,965.26
2016-08-07T14:42:28.413Z,965.22
2016-08-07T14:43:18.302Z,965.27
2016-08-07T14:44:23.570Z,965.26
2016-08-07T14:45:30.024Z,965.26
2016-08-07T14:46:28.981Z,965.23
2016-08-07T14:47:23.660Z,965.24
2016-08-07T14:48:23.813Z,965.24
2016-08-07T14:49:22.742Z,965.21
2016-08-07T14:50:19.006Z,965.18
2016-08-07T14:52:24.202Z,965.19
2016-08-07T14:53:18.893Z,965.17
2016-08-07T14:54:24.025Z,965.19
2016-08-07T14:55:19.397Z,965.18
2016-08-07T14:56:18.731Z,965.19
2016-08-07T14:57:23.616Z,965.17
2016-08-07T14:58:18.105Z,965.15
2016-08-07T14:59:24.559Z,965.20
2016-08-07T15:00:40.998Z,965.13
2016-08-07T15:01:28.846Z,965.10
2016-08-07T15:02:23.657Z,965.20
2016-08-07T15:03:17.792Z,965.10
2016-08-07T15:04:19.723Z,965.11
2016-08-07T15:05:29.721Z,965.05
2016-08-07T15:06:23.164Z,965.09
2016-08-07T15:07:23.730Z,965.06
2016-08-07T15:08:23.496Z,965.02
2016-08-07T15:09:29.330Z,965.06
2016-08-07T15:10:39.186Z,965.00
2016-08-07T15:11:18.320Z,965.02
2016-08-07T15:12:23.275Z,965.01
2016-08-07T15:13:35.013Z,965.02
2016-08-07T15:14:23.815Z,965.00
2016-08-07T15:15:24.730Z,965.01
2016-08-07T15:16:28.984Z,965.02
2016-08-07T15:17:28.985Z,964.97
2016-08-07T15:18:28.020Z,965.01
2016-08-07T15:19:18.063Z,965.03
2016-08-07T15:20:18.578Z,964.98
2016-08-07T15:21:28.390Z,964.99
2016-08-07T15:22:12.389Z,965.01
2016-08-07T15:23:22.817Z,964.99
2016-08-07T15:24:33.922Z,964.97
2016-08-07T15:25:28.002Z,964.92
2016-08-07T15:26:27.914Z,964.88
2016-08-07T15:27:29.087Z,964.98
2016-08-07T15:28:28.477Z,964.92
2016-08-07T15:29:19.284Z,964.91
2016-08-07T15:30:23.100Z,964.94
2016-08-07T15:31:23.384Z,964.90
2016-08-07T15:32:28.772Z,964.94
2016-08-07T15:33:18.191Z,964.90
2016-08-07T15:34:23.685Z,964.92
2016-08-07T15:35:16.637Z,964.90
2016-08-07T15:36:16.627Z,964.87
2016-08-07T15:37:28.269Z,964.87
2016-08-07T15:38:18.333Z,964.80
2016-08-07T15:39:27.752Z,964.82
2016-08-07T15:40:27.845Z,964.90
2016-08-07T15:41:28.384Z,964.85
2016-08-07T15:42:22.799Z,964.81
2016-08-07T15:43:23.300Z,964.83
2016-08-07T15:44:17.987Z,964.78
2016-08-07T15:45:11.792Z,964.78
2016-08-07T15:46:22.212Z,964.71
2016-08-07T15:47:27.864Z,964.73
2016-08-07T15:48:18.224Z,964.74
2016-08-07T15:49:22.409Z,964.76
2016-08-07T15:50:18.253Z,964.77
2016-08-07T15:51:17.851Z,964.82
2016-08-07T15:52:29.985Z,964.73
2016-08-07T15:53:23.182Z,964.70
2016-08-07T15:54:19.353Z,964.66
2016-08-07T15:55:08.339Z,964.70
2016-08-07T15:56:17.183Z,964.67
2016-08-07T15:57:18.191Z,964.67
2016-08-07T15:58:22.706Z,964.65
2016-08-07T15:59:17.473Z,964.59
2016-08-07T16:00:28.583Z,964.62
2016-08-07T16:01:22.360Z,964.62
2016-08-07T16:02:17.209Z,964.53
2016-08-07T16:03:14.514Z,964.56
2016-08-07T16:04:17.403Z,964.57
2016-08-07T16:05:22.302Z,964.55
2016-08-07T16:06:18.974Z,964.54
2016-08-07T16:07:17.295Z,964.54
2016-08-07T16:08:19.115Z,964.56
2016-08-07T16:09:23.321Z,964.56
2016-08-07T16:10:23.339Z,964.53
2016-08-07T16:11:17.993Z,964.49
2016-08-07T16:12:23.116Z,964.50
2016-08-07T16:13:22.787Z,964.47
2016-08-07T16:14:20.611Z,964.45
2016-08-07T16:15:17.698Z,964.43
2016-08-07T16:16:23.345Z,964.40
2016-08-07T16:17:22.519Z,964.43
2016-08-07T16:18:23.821Z,964.45
2016-08-07T16:19:17.382Z,964.40
2016-08-07T16:20:29.101Z,964.42
2016-08-07T16:21:22.453Z,964.45
2016-08-07T16:22:34.014Z,964.41
2016-08-07T16:23:23.029Z,964.39
2016-08-07T16:24:23.451Z,964.37
2016-08-07T16:25:24.022Z,964.35
2016-08-07T16:26:27.991Z,964.31
2016-08-07T16:27:30.014Z,964.35
2016-08-07T16:28:25.806Z,964.31
2016-08-07T16:29:21.169Z,964.33
2016-08-07T16:30:18.018Z,964.27
2016-08-07T16:31:28.251Z,964.27
2016-08-07T16:32:29.025Z,964.29
2016-08-07T16:33:18.653Z,964.25
2016-08-07T16:34:22.893Z,964.25
2016-08-07T16:35:28.743Z,964.23
2016-08-07T16:36:19.292Z,964.28
2016-08-07T16:37:22.190Z,964.26
2016-08-07T16:38:19.046Z,964.25
2016-08-07T16:39:27.838Z,964.25
2016-08-07T16:40:23.242Z,964.20
2016-08-07T16:41:28.784Z,964.19
2016-08-07T16:42:17.632Z,964.20
2016-08-07T16:43:23.537Z,964.21
2016-08-07T16:44:18.210Z,964.21
2016-08-07T16:45:17.409Z,964.20
2016-08-07T16:46:17.901Z,964.18
2016-08-07T16:47:17.906Z,964.21
2016-08-07T16:48:23.822Z,964.15
2016-08-07T16:49:22.862Z,964.15
2016-08-07T16:50:23.058Z,964.16
2016-08-07T16:51:23.385Z,964.12
2016-08-07T16:52:34.336Z,964.09
2016-08-07T16:53:23.645Z,964.08
2016-08-07T16:54:23.997Z,964.08
2016-08-07T16:55:24.380Z,964.06